Time;durP1;ratioP1;P1;durP2;ratioP2;P2;SDS_P1;SDS_P2;PMS_P1;PMS_P2;Temp;Humidity;BMP_temperature;BMP_pressure;BME280_temperature;BME280_humidity;BME280_pressure;Samples;Min_cycle;Max_cycle;Signal;HPM_P1;HPM_P2
2023/11/30 00:00:14;;;;;;;13.75;7.03;;;;;;;-1.87;69.32;91523.66;2042708;70;20766;-80
2023/11/30 00:02:40;;;;;;;17.58;6.80;;;;;;;-1.90;68.72;91525.50;2047088;70;20139;-82
2023/11/30 00:05:07;;;;;;;16.85;6.43;;;;;;;-1.88;68.09;91528.44;2048492;70;20177;-80
2023/11/30 00:07:36;;;;;;;12.98;5.50;;;;;;;-1.86;68.80;91523.09;2047027;70;20514;-81
2023/11/30 00:10:03;;;;;;;12.18;4.82;;;;;;;-1.83;68.71;91524.00;2047544;70;20504;-80
2023/11/30 00:12:29;;;;;;;17.52;6.35;;;;;;;-2.20;69.26;91526.38;2050587;70;20158;-79
2023/11/30 00:14:54;;;;;;;14.75;6.20;;;;;;;-2.11;70.38;91538.81;2047373;70;20194;-80
2023/11/30 00:17:20;;;;;;;13.25;6.22;;;;;;;-1.88;69.90;91533.19;2047612;70;20618;-79
2023/11/30 00:19:46;;;;;;;10.02;4.80;;;;;;;-1.88;69.25;91517.41;2047552;70;20147;-79
2023/11/30 00:22:13;;;;;;;11.07;4.82;;;;;;;-1.90;69.61;91508.94;2050810;70;20246;-81
2023/11/30 00:24:39;;;;;;;9.70;5.28;;;;;;;-1.87;69.09;91509.84;2044806;70;20231;-80
2023/11/30 00:27:12;;;;;;;11.10;4.03;;;;;;;-1.82;68.60;91487.56;2050756;70;20150;-81
2023/11/30 00:29:39;;;;;;;6.68;3.45;;;;;;;-1.73;68.39;91502.78;2047403;70;20502;-80
2023/11/30 00:32:05;;;;;;;6.72;3.17;;;;;;;-1.78;67.62;91505.78;2047482;70;20555;-81
2023/11/30 00:34:31;;;;;;;5.53;3.15;;;;;;;-1.70;67.34;91511.97;2050713;70;20170;-81
2023/11/30 00:36:57;;;;;;;10.13;3.70;;;;;;;-1.70;66.58;91515.44;2051015;70;20181;-80
2023/11/30 00:39:22;;;;;;;6.03;3.50;;;;;;;-1.71;66.52;91505.72;2047685;70;20151;-82
2023/11/30 00:41:48;;;;;;;7.38;3.55;;;;;;;-1.77;67.07;91488.66;2050918;70;20576;-82
2023/11/30 00:44:15;;;;;;;9.15;3.92;;;;;;;-1.72;67.28;91486.97;2046260;70;20189;-80
2023/11/30 00:46:40;;;;;;;7.32;3.78;;;;;;;-1.71;66.52;91488.44;2047709;70;20197;-80
2023/11/30 00:49:06;;;;;;;12.95;3.42;;;;;;;-1.69;66.57;91505.91;2051029;70;20162;-80
2023/11/30 00:51:34;;;;;;;7.15;3.42;;;;;;;-1.69;66.74;91505.91;2047597;70;20226;-80
2023/11/30 00:53:59;;;;;;;7.38;3.50;;;;;;;-1.62;66.21;91510.63;2047610;70;20565;-81
2023/11/30 00:56:25;;;;;;;6.18;3.28;;;;;;;-1.51;65.46;91503.19;2050910;70;20217;-79
2023/11/30 00:58:51;;;;;;;4.68;2.72;;;;;;;-1.48;65.65;91496.56;2050587;70;20667;-79
2023/11/30 01:01:17;;;;;;;7.20;3.00;;;;;;;-1.48;65.36;91494.53;2050825;70;20236;-81
2023/11/30 01:03:44;;;;;;;7.40;3.00;;;;;;;-1.45;65.55;91485.13;2050277;70;20166;-81
2023/11/30 01:06:10;;;;;;;5.70;2.90;;;;;;;-1.38;65.05;91498.13;2047310;70;20178;-81
2023/11/30 01:08:36;;;;;;;5.45;2.70;;;;;;;-1.34;64.90;91494.97;2050805;70;20127;-82
2023/11/30 01:11:03;;;;;;;4.97;2.83;;;;;;;-1.46;65.57;91475.38;2050922;70;20522;-81
2023/11/30 01:13:29;;;;;;;5.53;3.03;;;;;;;-1.34;65.02;91498.47;2047379;70;20154;-81
2023/11/30 01:15:54;;;;;;;5.85;2.80;;;;;;;-1.35;64.41;91480.44;2047582;70;20139;-82
2023/11/30 01:18:20;;;;;;;6.07;2.92;;;;;;;-1.21;64.25;91489.19;2047574;70;20606;-81
2023/11/30 01:20:45;;;;;;;9.60;3.13;;;;;;;-1.20;63.81;91498.91;2047298;70;20147;-81
2023/11/30 01:23:11;;;;;;;5.53;3.00;;;;;;;-1.20;64.11;91485.13;2047080;70;20166;-81
2023/11/30 01:25:38;;;;;;;7.93;3.30;;;;;;;-1.23;64.29;91491.78;2050944;70;20606;-81
2023/11/30 01:28:04;;;;;;;6.72;3.40;;;;;;;-1.17;64.22;91486.03;2050699;70;20139;-82
2023/11/30 01:30:29;;;;;;;7.07;3.60;;;;;;;-1.20;64.73;91487.16;2050741;70;20161;-81
2023/11/30 01:32:55;;;;;;;8.18;3.50;;;;;;;-1.17;64.92;91489.53;2050902;70;20216;-81
2023/11/30 01:35:21;;;;;;;7.78;3.80;;;;;;;-1.46;66.19;91477.41;2050638;70;20245;-81
2023/11/30 01:37:47;;;;;;;7.72;3.63;;;;;;;-1.52;66.30;91474.88;2047461;70;20186;-79
2023/11/30 01:40:13;;;;;;;7.05;3.53;;;;;;;-1.77;67.45;91483.13;2050218;70;20134;-82
2023/11/30 01:42:39;;;;;;;6.07;3.15;;;;;;;-1.40;65.96;91478.66;2047736;70;20146;-82
2023/11/30 01:45:05;;;;;;;9.02;3.47;;;;;;;-1.49;66.26;91470.25;2050744;70;20150;-80
2023/11/30 01:47:32;;;;;;;6.13;3.47;;;;;;;-1.50;66.31;91457.75;2047226;70;20153;-80
2023/11/30 01:50:00;;;;;;;9.70;3.13;;;;;;;-1.28;65.33;91467.91;2050816;70;20329;-81
2023/11/30 01:52:26;;;;;;;6.85;3.85;;;;;;;-1.27;65.33;91457.59;2050691;70;20229;-81
2023/11/30 01:54:52;;;;;;;6.72;3.17;;;;;;;-1.25;64.73;91450.19;2047130;70;20229;-81
2023/11/30 01:57:18;;;;;;;6.32;3.22;;;;;;;-1.19;64.60;91470.03;2047452;70;20143;-80
2023/11/30 01:59:45;;;;;;;6.45;3.53;;;;;;;-1.23;65.98;91469.69;2044775;70;20150;-80
2023/11/30 02:02:11;;;;;;;8.38;3.95;;;;;;;-1.21;66.10;91474.66;2047356;70;20151;-81
2023/11/30 02:04:40;;;;;;;10.32;3.58;;;;;;;-1.23;66.66;91466.22;2047345;70;20393;-82
2023/11/30 02:07:06;;;;;;;10.38;3.75;;;;;;;-1.10;66.32;91455.59;2050697;70;20226;-79
2023/11/30 02:09:32;;;;;;;7.95;3.70;;;;;;;-1.04;65.75;91439.50;2047263;70;20241;-80
2023/11/30 02:11:59;;;;;;;6.95;3.53;;;;;;;-1.03;65.31;91420.91;2050467;70;20146;-80
2023/11/30 02:14:26;;;;;;;6.03;3.70;;;;;;;-1.16;66.23;91430.22;2047243;70;20201;-80
2023/11/30 02:16:52;;;;;;;5.00;3.38;;;;;;;-1.07;65.94;91428.84;2050470;70;20154;-81
2023/11/30 02:19:18;;;;;;;10.68;4.07;;;;;;;-1.07;65.68;91429.59;2047195;70;20583;-81
2023/11/30 02:21:51;;;;;;;8.10;3.70;;;;;;;-1.03;65.29;91423.66;2050652;70;20150;-81
2023/11/30 02:24:17;;;;;;;6.55;3.65;;;;;;;-1.27;66.19;91433.47;2047008;70;20242;-82
2023/11/30 02:26:43;;;;;;;9.10;4.45;;;;;;;-1.02;65.47;91434.13;2047373;70;20513;-81
2023/11/30 02:29:08;;;;;;;8.18;3.67;;;;;;;-1.12;65.76;91402.94;2050867;70;20151;-81
2023/11/30 02:31:35;;;;;;;5.15;2.92;;;;;;;-1.03;65.00;91413.34;2047211;70;20586;-81
2023/11/30 02:34:01;;;;;;;8.65;3.20;;;;;;;-1.30;64.21;91402.19;2047452;70;20154;-82
2023/11/30 02:36:28;;;;;;;6.45;3.25;;;;;;;-1.09;64.33;91399.06;2047258;70;20545;-81
2023/11/30 02:38:53;;;;;;;7.70;2.80;;;;;;;-1.07;64.16;91385.41;2047363;70;20150;-81
2023/11/30 02:41:19;;;;;;;5.43;2.88;;;;;;;-0.88;64.06;91387.59;2044496;70;20245;-80
2023/11/30 02:43:45;;;;;;;10.10;3.60;;;;;;;-1.09;65.33;91384.50;2050631;70;20229;-79
2023/11/30 02:46:10;;;;;;;8.20;3.50;;;;;;;-0.93;65.59;91380.28;2050435;70;20595;-80
2023/11/30 02:48:37;;;;;;;7.22;3.63;;;;;;;-0.87;66.06;91391.84;2047049;70;20139;-80
2023/11/30 02:51:02;;;;;;;9.02;3.85;;;;;;;-0.82;65.92;91382.56;2050476;70;20181;-81
2023/11/30 02:53:28;;;;;;;6.03;3.20;;;;;;;-0.85;65.37;91386.47;2047167;70;20205;-80
2023/11/30 02:55:54;;;;;;;7.38;3.17;;;;;;;-0.71;64.38;91389.63;2050687;70;20166;-81
2023/11/30 02:58:19;;;;;;;5.47;2.92;;;;;;;-0.69;63.90;91387.00;2050536;70;20587;-81
2023/11/30 03:00:46;;;;;;;5.57;2.92;;;;;;;-0.58;63.35;91391.34;2050602;70;20670;-81
2023/11/30 03:03:16;;;;;;;5.05;2.97;;;;;;;-0.52;63.43;91387.00;2050678;70;20142;-81
2023/11/30 03:05:43;;;;;;;5.22;2.60;;;;;;;-0.47;63.39;91392.84;2046764;70;20626;-82
2023/11/30 03:08:08;;;;;;;4.55;2.70;;;;;;;-0.45;63.21;91385.47;2050710;70;20614;-81
2023/11/30 03:10:34;;;;;;;5.55;2.83;;;;;;;-0.45;63.23;91382.69;2050725;70;20182;-81
2023/11/30 03:13:00;;;;;;;7.28;2.97;;;;;;;-0.59;64.73;91378.81;2050228;70;20212;-82
2023/11/30 03:15:25;;;;;;;8.70;3.95;;;;;;;-0.88;66.33;91373.78;2050546;70;20222;-80
2023/11/30 03:17:51;;;;;;;11.23;3.95;;;;;;;-0.64;65.56;91377.00;2041465;70;20530;-81
2023/11/30 03:20:17;;;;;;;6.20;3.22;;;;;;;-0.53;65.16;91368.97;2050243;70;20150;-81
2023/11/30 03:22:42;;;;;;;6.90;3.42;;;;;;;-0.73;65.76;91383.19;2050274;70;20151;-80
2023/11/30 03:25:08;;;;;;;7.20;3.55;;;;;;;-0.54;65.44;91378.56;2050541;70;20233;-82
2023/11/30 03:27:34;;;;;;;8.07;3.25;;;;;;;-0.52;65.39;91367.66;2047179;70;20143;-81
2023/11/30 03:29:59;;;;;;;6.55;3.28;;;;;;;-0.48;65.30;91361.72;2050579;70;20236;-81
2023/11/30 03:32:25;;;;;;;5.78;3.38;;;;;;;-0.46;65.32;91359.09;2050281;70;20492;-81
2023/11/30 03:34:51;;;;;;;6.55;3.03;;;;;;;-0.45;64.46;91346.03;2050383;70;20345;-82
2023/11/30 03:37:16;;;;;;;5.22;2.90;;;;;;;-0.42;64.58;91358.69;2047145;70;20660;-81
2023/11/30 03:39:42;;;;;;;5.22;3.25;;;;;;;-0.34;64.35;91365.59;2047193;70;20146;-79
2023/11/30 03:42:07;;;;;;;7.00;3.15;;;;;;;-0.31;64.81;91369.25;2050507;70;20127;-80
2023/11/30 03:44:33;;;;;;;7.32;3.20;;;;;;;-0.33;64.44;91374.63;2049187;70;20178;-81
2023/11/30 03:47:02;;;;;;;5.38;2.78;;;;;;;-0.42;64.17;91378.03;2041598;70;20170;-80
2023/11/30 03:49:28;;;;;;;5.43;2.97;;;;;;;-0.33;64.39;91369.09;2044391;70;20174;-80
2023/11/30 03:51:53;;;;;;;7.05;3.35;;;;;;;-0.27;64.68;91372.34;2044301;70;20253;-80
2023/11/30 03:54:20;;;;;;;6.25;3.00;;;;;;;-0.30;64.94;91368.66;2041768;70;20155;-81
2023/11/30 03:56:46;;;;;;;5.05;3.08;;;;;;;-0.25;64.23;91358.66;2044481;70;20174;-81
2023/11/30 03:59:12;;;;;;;6.15;2.60;;;;;;;-0.17;63.93;91362.06;2044351;70;20162;-80
2023/11/30 04:01:38;;;;;;;5.53;2.45;;;;;;;-0.34;63.73;91359.31;2047938;70;20166;-80
2023/11/30 04:04:04;;;;;;;10.88;3.35;;;;;;;-0.60;65.10;91347.66;2044464;70;20237;-80
2023/11/30 04:06:30;;;;;;;11.13;3.65;;;;;;;-0.29;64.85;91358.34;2047499;70;20166;-80
2023/11/30 04:08:59;;;;;;;5.85;3.70;;;;;;;-0.26;64.83;91352.41;2047422;70;20205;-80
2023/11/30 04:11:26;;;;;;;7.35;3.97;;;;;;;-0.21;64.57;91356.22;2044269;70;20242;-80
2023/11/30 04:13:52;;;;;;;10.27;4.10;;;;;;;-0.15;64.90;91361.47;2044221;70;20177;-80
2023/11/30 04:16:17;;;;;;;5.80;2.92;;;;;;;-0.11;64.24;91354.22;2044234;70;20245;-80
2023/11/30 04:18:44;;;;;;;5.07;2.08;;;;;;;-0.04;63.68;91350.63;2044005;70;20617;-80
2023/11/30 04:21:10;;;;;;;3.90;2.08;;;;;;;-0.02;63.62;91347.28;2047171;70;20166;-79
2023/11/30 04:23:35;;;;;;;5.95;2.33;;;;;;;0.01;63.49;91343.38;2047493;70;20535;-79
2023/11/30 04:26:01;;;;;;;3.63;2.10;;;;;;;0.05;63.07;91342.94;2044503;70;20639;-80
2023/11/30 04:28:27;;;;;;;6.32;2.40;;;;;;;0.00;63.30;91336.38;2047552;70;20297;-79
2023/11/30 04:30:54;;;;;;;5.07;2.70;;;;;;;0.03;63.39;91335.22;2044268;70;20182;-79
2023/11/30 04:33:20;;;;;;;5.53;2.83;;;;;;;0.08;63.44;91319.66;2044266;70;20257;-82
2023/11/30 04:35:46;;;;;;;4.30;2.70;;;;;;;-0.03;63.78;91318.16;2044049;70;20146;-81
2023/11/30 04:38:12;;;;;;;3.65;2.10;;;;;;;0.02;63.75;91328.22;2047281;70;20184;-83
2023/11/30 04:40:38;;;;;;;4.38;2.20;;;;;;;0.10;62.93;91315.00;2044124;70;20175;-79
2023/11/30 04:43:04;;;;;;;4.15;2.10;;;;;;;-0.07;62.29;91320.59;2047475;70;20257;-81
2023/11/30 04:45:30;;;;;;;3.35;2.00;;;;;;;-0.14;62.46;91311.09;2047303;70;20586;-81
2023/11/30 04:47:56;;;;;;;5.43;2.70;;;;;;;-0.08;61.24;91310.84;2044169;70;20153;-81
2023/11/30 04:50:22;;;;;;;9.27;3.03;;;;;;;-0.01;61.53;91312.75;2044206;70;20167;-82
2023/11/30 04:52:48;;;;;;;4.00;2.28;;;;;;;0.10;61.76;91297.69;2044166;70;20151;-82
2023/11/30 04:55:14;;;;;;;6.32;2.20;;;;;;;0.20;61.65;91296.38;2044163;70;20560;-83
2023/11/30 04:57:40;;;;;;;7.68;3.15;;;;;;;0.08;61.79;91297.50;2047462;70;20141;-82
2023/11/30 05:00:06;;;;;;;4.57;2.70;;;;;;;0.13;61.02;91294.47;2043948;70;20182;-82
2023/11/30 05:02:35;;;;;;;5.30;2.65;;;;;;;0.21;61.87;91292.31;2043962;70;20198;-83
2023/11/30 05:05:05;;;;;;;7.20;4.10;;;;;;;-0.09;63.45;91296.28;2047462;70;20174;-82
2023/11/30 05:07:36;;;;;;;8.88;3.30;;;;;;;0.22;62.45;91302.06;2044548;70;20182;-82
2023/11/30 05:10:02;;;;;;;8.27;3.67;;;;;;;0.27;63.05;91300.34;2047471;70;20245;-80
2023/11/30 05:12:28;;;;;;;6.85;3.65;;;;;;;0.34;63.17;91298.75;2047214;70;20630;-81
2023/11/30 05:15:05;;;;;;;7.43;3.72;;;;;;;0.33;63.07;91300.06;2047339;70;20569;-83
2023/11/30 05:17:56;;;;;;;7.72;3.00;;;;;;;0.36;62.95;91302.41;2044935;70;20162;-81
2023/11/30 05:20:22;;;;;;;6.28;3.28;;;;;;;0.25;63.20;91305.72;2041373;70;20511;-78
2023/11/30 05:22:47;;;;;;;7.22;3.40;;;;;;;0.07;64.57;91329.97;2047513;70;20186;-81
2023/11/30 05:25:13;;;;;;;11.73;4.70;;;;;;;0.16;64.38;91326.53;2047758;70;20587;-80
2023/11/30 05:27:39;;;;;;;14.15;4.28;;;;;;;0.34;63.63;91326.44;2044658;70;20210;-81
2023/11/30 05:30:05;;;;;;;10.63;4.70;;;;;;;0.34;63.33;91309.84;2047812;70;20139;-81
2023/11/30 05:32:31;;;;;;;12.43;4.90;;;;;;;0.39;63.71;91314.38;2044492;70;20311;-83
2023/11/30 05:34:56;;;;;;;11.65;5.18;;;;;;;0.43;63.26;91307.09;2048324;70;20587;-81
2023/11/30 05:37:22;;;;;;;13.35;6.55;;;;;;;0.42;63.18;91291.78;2047777;70;20135;-82
2023/11/30 05:39:47;;;;;;;13.57;5.78;;;;;;;0.38;63.57;91290.75;2047931;70;20543;-81
2023/11/30 05:42:13;;;;;;;14.98;6.03;;;;;;;0.34;63.72;91273.84;2048030;70;20209;-80
2023/11/30 05:44:39;;;;;;;11.90;5.40;;;;;;;0.42;63.91;91286.25;2047927;70;20234;-81
2023/11/30 05:47:05;;;;;;;11.50;5.25;;;;;;;0.37;64.25;91294.84;2048115;70;20135;-79
2023/11/30 05:49:31;;;;;;;10.35;4.90;;;;;;;0.43;64.09;91298.06;2048067;70;20230;-78
2023/11/30 05:51:57;;;;;;;14.48;5.75;;;;;;;0.34;64.61;91305.03;2044694;70;20151;-78
2023/11/30 05:54:23;;;;;;;9.23;5.43;;;;;;;0.30;65.07;91299.19;2044956;70;20153;-78
2023/11/30 05:56:48;;;;;;;9.02;4.47;;;;;;;0.21;66.01;91299.88;2048033;70;20566;-82
2023/11/30 05:59:14;;;;;;;8.00;4.28;;;;;;;0.25;66.29;91287.09;2047667;70;20161;-80
2023/11/30 06:01:40;;;;;;;8.55;4.20;;;;;;;0.37;65.73;91278.22;2044381;70;20590;-81
2023/11/30 06:04:06;;;;;;;10.60;4.72;;;;;;;0.37;65.33;91273.44;2044341;70;20189;-81
2023/11/30 06:06:31;;;;;;;8.77;4.50;;;;;;;0.49;65.02;91273.56;2047338;70;20185;-81
2023/11/30 06:08:57;;;;;;;8.18;4.22;;;;;;;0.40;65.18;91272.25;2047642;70;20174;-81
2023/11/30 06:11:22;;;;;;;7.53;4.70;;;;;;;0.46;65.05;91272.00;2047869;70;20237;-84
2023/11/30 06:13:49;;;;;;;10.88;4.45;;;;;;;0.18;66.66;91276.13;2047575;70;20139;-82
2023/11/30 06:16:15;;;;;;;10.57;5.05;;;;;;;0.38;65.92;91269.34;2047695;70;20173;-83
2023/11/30 06:18:41;;;;;;;8.38;4.50;;;;;;;0.30;66.33;91265.25;2047561;70;20186;-80
2023/11/30 06:21:09;;;;;;;10.05;4.55;;;;;;;0.37;65.94;91248.50;2041431;70;20610;-79
2023/11/30 06:23:35;;;;;;;9.13;4.78;;;;;;;0.39;66.02;91243.13;2047649;70;20147;-83
2023/11/30 06:26:00;;;;;;;10.10;4.85;;;;;;;0.42;65.75;91241.22;2047696;70;20206;-82
2023/11/30 06:28:28;;;;;;;10.30;4.63;;;;;;;0.47;66.17;91240.22;2047543;70;20147;-83
2023/11/30 06:30:54;;;;;;;9.95;4.90;;;;;;;0.43;65.79;91237.88;2047447;70;20150;-82
2023/11/30 06:33:20;;;;;;;13.20;4.70;;;;;;;0.45;65.38;91237.28;2044356;70;20179;-83
2023/11/30 06:35:45;;;;;;;9.30;4.72;;;;;;;0.50;65.74;91245.31;2047600;70;20182;-82
2023/11/30 06:38:11;;;;;;;10.45;4.88;;;;;;;0.56;65.24;91245.03;2044321;70;20145;-82
2023/11/30 06:40:37;;;;;;;11.10;5.07;;;;;;;0.02;66.44;91236.19;2047493;70;20599;-82
2023/11/30 06:43:03;;;;;;;11.27;5.35;;;;;;;0.10;66.46;91232.00;2047579;70;20139;-84
2023/11/30 06:45:29;;;;;;;10.93;5.57;;;;;;;0.33;66.16;91219.81;2047712;70;20184;-81
2023/11/30 06:47:55;;;;;;;15.10;5.78;;;;;;;0.50;65.57;91214.13;2047649;70;20158;-82
2023/11/30 06:50:20;;;;;;;10.05;5.30;;;;;;;0.53;65.35;91215.72;2044145;70;20194;-82
2023/11/30 06:52:46;;;;;;;11.90;6.03;;;;;;;0.58;65.45;91216.75;2047569;70;20902;-82
2023/11/30 06:55:11;;;;;;;15.65;7.13;;;;;;;0.62;64.89;91211.50;2047575;70;20142;-83
2023/11/30 06:57:38;;;;;;;12.60;6.80;;;;;;;0.52;65.45;91221.84;2044270;70;20225;-82
2023/11/30 07:00:09;;;;;;;15.73;7.35;;;;;;;0.54;65.21;91219.94;2047589;70;20619;-82
2023/11/30 07:02:35;;;;;;;16.48;8.43;;;;;;;0.52;65.94;91199.72;2047558;70;20139;-83
2023/11/30 07:05:00;;;;;;;17.83;7.40;;;;;;;0.68;65.61;91211.94;2047572;70;20485;-82
2023/11/30 07:07:26;;;;;;;15.40;7.07;;;;;;;0.71;65.39;91203.19;2047525;70;20147;-83
2023/11/30 07:09:52;;;;;;;20.77;8.73;;;;;;;0.69;65.79;91207.88;2047640;70;20159;-82
2023/11/30 07:12:18;;;;;;;18.50;9.50;;;;;;;0.75;65.60;91203.50;2047653;70;20211;-82
2023/11/30 07:14:43;;;;;;;17.73;8.05;;;;;;;0.66;65.48;91190.38;2047664;70;20170;-81
2023/11/30 07:17:09;;;;;;;13.90;7.18;;;;;;;0.82;65.13;91206.69;2044228;70;20162;-82
2023/11/30 07:19:39;;;;;;;17.15;7.95;;;;;;;0.87;64.46;91211.19;2047507;70;20590;-81
2023/11/30 07:22:04;;;;;;;22.02;7.82;;;;;;;0.88;64.61;91213.41;2044128;70;20158;-83
2023/11/30 07:24:30;;;;;;;20.88;7.60;;;;;;;0.80;65.02;91209.31;2047547;70;20253;-81
2023/11/30 07:26:56;;;;;;;16.48;7.47;;;;;;;0.97;64.32;91214.72;2047643;70;20142;-81
2023/11/30 07:29:21;;;;;;;22.48;9.50;;;;;;;0.37;66.80;91212.53;2047551;70;20153;-81
2023/11/30 07:31:50;;;;;;;17.52;8.82;;;;;;;0.64;66.14;91206.88;2047571;70;20190;-82
2023/11/30 07:34:15;;;;;;;17.27;8.35;;;;;;;0.73;66.31;91202.59;2047521;70;20146;-82
2023/11/30 07:36:41;;;;;;;19.08;7.85;;;;;;;0.65;66.20;91194.47;2047535;70;20135;-81
2023/11/30 07:39:07;;;;;;;15.75;7.95;;;;;;;0.86;65.46;91195.91;2047517;70;20599;-81
2023/11/30 07:41:32;;;;;;;15.70;7.75;;;;;;;0.98;64.95;91205.09;2047526;70;20147;-81
2023/11/30 07:43:58;;;;;;;23.45;12.65;;;;;;;0.87;65.56;91202.88;2047521;70;20174;-81
2023/11/30 07:46:23;;;;;;;29.13;14.32;;;;;;;0.83;65.83;91203.34;2047410;70;20209;-81
2023/11/30 07:48:49;;;;;;;37.25;19.73;;;;;;;1.01;65.20;91192.84;2047689;70;20163;-82
2023/11/30 07:51:16;;;;;;;26.63;13.38;;;;;;;1.10;64.85;91192.09;2047345;70;20614;-81
2023/11/30 07:53:41;;;;;;;21.95;10.18;;;;;;;1.08;65.73;91205.06;2047375;70;20182;-81
2023/11/30 07:56:07;;;;;;;17.00;7.97;;;;;;;1.08;65.45;91194.72;2047473;70;20519;-81
2023/11/30 07:58:33;;;;;;;16.70;8.05;;;;;;;1.13;65.27;91204.75;2044212;70;20575;-81
2023/11/30 08:00:59;;;;;;;18.30;8.10;;;;;;;1.27;65.17;91205.75;2047411;70;20638;-80
2023/11/30 08:03:25;;;;;;;23.02;7.55;;;;;;;1.20;64.78;91203.88;2047672;70;20155;-81
2023/11/30 08:05:50;;;;;;;15.73;7.47;;;;;;;1.16;65.21;91189.75;2047461;70;20537;-81
2023/11/30 08:08:17;;;;;;;18.27;7.78;;;;;;;1.31;64.90;91199.03;2047705;70;20334;-81
2023/11/30 08:10:43;;;;;;;17.98;7.32;;;;;;;1.42;64.72;91196.41;2047541;70;20174;-82
2023/11/30 08:13:10;;;;;;;15.10;7.13;;;;;;;1.46;63.94;91195.91;2047574;70;20673;-82
2023/11/30 08:15:36;;;;;;;14.93;8.07;;;;;;;1.40;64.18;91203.84;2047640;70;20158;-81
2023/11/30 08:18:02;;;;;;;17.08;7.70;;;;;;;1.44;64.16;91204.84;2047675;70;20155;-80
2023/11/30 08:20:27;;;;;;;20.63;8.90;;;;;;;1.06;65.55;91210.47;2044394;70;20166;-81
2023/11/30 08:22:54;;;;;;;23.75;10.05;;;;;;;1.15;66.38;91206.97;2047735;70;20150;-82
2023/11/30 08:25:19;;;;;;;22.15;9.85;;;;;;;1.17;66.50;91196.72;2047874;70;20149;-82
2023/11/30 08:27:45;;;;;;;23.95;10.82;;;;;;;1.08;66.55;91200.25;2047529;70;20146;-82
2023/11/30 08:30:11;;;;;;;20.98;10.23;;;;;;;1.37;66.62;91202.22;2048300;70;20146;-80
2023/11/30 08:32:37;;;;;;;19.80;9.57;;;;;;;1.31;66.24;91199.03;2048356;70;20163;-82
2023/11/30 08:35:04;;;;;;;18.58;9.15;;;;;;;1.51;65.70;91205.97;2048410;70;20149;-81
2023/11/30 08:37:30;;;;;;;21.73;9.88;;;;;;;1.34;66.43;91211.72;2044900;70;20142;-82
2023/11/30 08:39:55;;;;;;;23.30;10.40;;;;;;;1.33;66.32;91222.09;2045075;70;20500;-82
2023/11/30 08:42:21;;;;;;;25.60;11.32;;;;;;;1.47;65.56;91211.28;2048269;70;20150;-79
2023/11/30 08:44:47;;;;;;;38.13;20.98;;;;;;;1.48;65.29;91210.66;2048258;70;20610;-80
2023/11/30 08:47:13;;;;;;;19.83;9.23;;;;;;;1.59;64.22;91209.31;2048228;70;20158;-81
2023/11/30 08:49:39;;;;;;;27.77;11.85;;;;;;;1.72;64.02;91227.53;2048188;70;20530;-81
2023/11/30 08:52:05;;;;;;;30.73;14.15;;;;;;;1.44;64.55;91221.47;2048162;70;20154;-84
2023/11/30 08:54:31;;;;;;;28.17;13.65;;;;;;;1.59;64.01;91225.22;2048281;70;20131;-81
2023/11/30 08:56:57;;;;;;;22.23;11.32;;;;;;;1.62;64.29;91221.28;2048238;70;20154;-81
2023/11/30 08:59:23;;;;;;;23.75;10.05;;;;;;;1.79;63.33;91215.53;2048188;70;20217;-82
2023/11/30 09:01:49;;;;;;;15.60;8.75;;;;;;;1.84;63.11;91222.09;2048173;70;20147;-81
2023/11/30 09:04:15;;;;;;;18.95;8.93;;;;;;;1.84;62.92;91222.09;2048194;70;20143;-81
2023/11/30 09:06:41;;;;;;;22.85;10.75;;;;;;;1.93;63.25;91222.06;2048060;70;20153;-82
2023/11/30 09:09:06;;;;;;;19.90;10.32;;;;;;;1.95;62.86;91213.13;2048201;70;20150;-82
2023/11/30 09:11:33;;;;;;;19.85;9.93;;;;;;;1.99;62.94;91225.22;2048245;70;20196;-82
2023/11/30 09:13:59;;;;;;;22.92;10.95;;;;;;;1.97;62.78;91224.34;2048250;70;20630;-82
2023/11/30 09:16:26;;;;;;;24.48;10.57;;;;;;;1.94;62.67;91233.88;2048223;70;20167;-82
2023/11/30 09:18:55;;;;;;;23.90;10.63;;;;;;;2.04;62.97;91226.22;2048221;70;20151;-82
2023/11/30 09:21:21;;;;;;;21.55;10.02;;;;;;;2.07;63.01;91227.09;2048208;70;20142;-82
2023/11/30 09:23:46;;;;;;;22.35;10.25;;;;;;;2.07;63.04;91213.94;2048207;70;20487;-81
2023/11/30 09:26:12;;;;;;;20.88;10.80;;;;;;;2.14;63.42;91226.91;2044971;70;20155;-81
2023/11/30 09:28:37;;;;;;;24.33;11.18;;;;;;;2.07;62.80;91222.28;2048287;70;20174;-81
2023/11/30 09:31:04;;;;;;;26.48;12.50;;;;;;;1.84;63.41;91224.88;2048398;70;20143;-81
2023/11/30 09:33:30;;;;;;;25.13;11.60;;;;;;;2.10;62.91;91226.63;2048164;70;20225;-81
2023/11/30 09:35:57;;;;;;;27.70;12.32;;;;;;;2.13;62.87;91228.22;2048016;70;20146;-81
2023/11/30 09:38:22;;;;;;;25.65;11.55;;;;;;;2.09;62.88;91241.09;2048225;70;20134;-81
2023/11/30 09:40:48;;;;;;;27.88;11.75;;;;;;;2.17;62.97;91236.09;2048166;70;20229;-81
2023/11/30 09:43:17;;;;;;;26.33;11.80;;;;;;;2.22;62.82;91233.00;2048177;70;20149;-81
2023/11/30 09:45:45;;;;;;;25.02;11.18;;;;;;;2.19;62.91;91234.19;2048218;70;20595;-81
2023/11/30 09:48:11;;;;;;;25.95;11.63;;;;;;;2.28;62.44;91216.03;2048123;70;20150;-83
2023/11/30 09:50:37;;;;;;;24.30;11.95;;;;;;;2.28;63.11;91210.47;2048229;70;20146;-81
2023/11/30 09:53:02;;;;;;;22.35;11.52;;;;;;;2.08;63.69;91206.34;2048208;70;20143;-81
2023/11/30 09:55:28;;;;;;;28.08;11.80;;;;;;;2.07;63.35;91211.19;2048197;70;20170;-81
2023/11/30 09:57:54;;;;;;;26.23;12.40;;;;;;;2.02;63.75;91201.84;2048061;70;20244;-82
2023/11/30 10:00:20;;;;;;;28.48;12.55;;;;;;;2.21;63.01;91189.19;2048142;70;20241;-81
2023/11/30 10:02:53;;;;;;;27.83;12.85;;;;;;;2.35;62.95;91198.44;2048177;70;20134;-81
2023/11/30 10:05:19;;;;;;;27.33;13.15;;;;;;;2.37;62.93;91200.63;2048031;70;20250;-80
2023/11/30 10:07:45;;;;;;;34.35;13.98;;;;;;;2.36;62.91;91183.22;2048041;70;20234;-81
2023/11/30 10:10:11;;;;;;;27.85;13.25;;;;;;;2.42;62.82;91183.63;2048058;70;20166;-80
2023/11/30 10:12:37;;;;;;;25.58;12.73;;;;;;;2.38;63.01;91188.19;2048164;70;20242;-81
2023/11/30 10:15:02;;;;;;;26.67;11.98;;;;;;;2.25;62.48;91176.28;2048109;70;20578;-81
2023/11/30 10:17:28;;;;;;;23.00;11.68;;;;;;;2.41;62.38;91181.44;2048250;70;20608;-81
2023/11/30 10:19:55;;;;;;;28.80;8.90;;;;;;;2.55;61.97;91183.09;2048190;70;20164;-81
2023/11/30 10:22:23;;;;;;;15.88;8.13;;;;;;;2.45;62.00;91165.78;2047955;70;20502;-81
2023/11/30 10:24:52;;;;;;;13.68;6.78;;;;;;;2.46;62.23;91153.34;2048033;70;20166;-81
2023/11/30 10:27:22;;;;;;;18.13;6.25;;;;;;;2.51;61.89;91146.00;2048129;70;20216;-81
2023/11/30 10:29:48;;;;;;;15.13;8.02;;;;;;;2.28;63.25;91147.31;2048093;70;20135;-81
2023/11/30 10:32:15;;;;;;;17.20;9.55;;;;;;;2.27;63.65;91145.88;2046757;70;20154;-81
2023/11/30 10:34:47;;;;;;;21.13;9.65;;;;;;;2.04;63.58;91124.25;2048154;70;20138;-81
2023/11/30 10:37:18;;;;;;;18.20;8.85;;;;;;;2.28;63.52;91132.72;2048013;70;20145;-80
2023/11/30 10:39:51;;;;;;;20.42;8.50;;;;;;;2.57;63.18;91132.50;2048070;70;20157;-81
2023/11/30 10:42:17;;;;;;;15.80;8.60;;;;;;;2.59;62.90;91121.53;2047987;70;20607;-81
2023/11/30 10:44:49;;;;;;;11.30;5.88;;;;;;;2.46;62.98;91122.78;2048029;70;20582;-78
2023/11/30 10:47:16;;;;;;;14.30;6.57;;;;;;;2.49;63.61;91116.03;2046696;70;20143;-78
2023/11/30 10:49:43;;;;;;;23.17;9.13;;;;;;;2.17;64.36;91122.28;2048147;70;20158;-80
2023/11/30 10:52:09;;;;;;;27.35;10.45;;;;;;;2.11;65.35;91105.97;2047779;70;20261;-80
2023/11/30 10:54:38;;;;;;;29.05;10.63;;;;;;;1.95;66.25;91102.13;2044821;70;20143;-80
2023/11/30 10:57:04;;;;;;;19.58;8.57;;;;;;;1.80;67.14;91108.06;2048045;70;20146;-81
2023/11/30 10:59:33;;;;;;;20.98;8.80;;;;;;;2.09;66.30;91105.81;2047951;70;20587;-80
2023/11/30 11:01:59;;;;;;;21.20;8.30;;;;;;;2.32;66.13;91096.16;2048074;70;20566;-81
2023/11/30 11:04:28;;;;;;;18.98;8.90;;;;;;;2.42;65.87;91080.88;2047849;70;20151;-82
2023/11/30 11:07:07;;;;;;;17.58;8.15;;;;;;;2.37;65.84;91086.75;2044643;70;20205;-81
2023/11/30 11:09:53;;;;;;;17.35;8.00;;;;;;;2.45;65.30;91087.28;2044691;70;20147;-81
2023/11/30 11:12:19;;;;;;;14.02;7.68;;;;;;;2.46;64.96;91083.91;2048017;70;20185;-81
2023/11/30 11:14:45;;;;;;;13.38;7.88;;;;;;;2.55;65.20;91074.03;2047978;70;20147;-82
2023/11/30 11:17:12;;;;;;;18.15;8.05;;;;;;;2.57;65.24;91071.41;2047936;70;20147;-79
2023/11/30 11:19:42;;;;;;;18.38;8.68;;;;;;;2.61;65.35;91077.22;2047914;70;20242;-81
2023/11/30 11:22:16;;;;;;;16.98;7.63;;;;;;;2.67;65.24;91071.31;2047774;70;20165;-81
2023/11/30 11:24:41;;;;;;;14.65;7.45;;;;;;;2.39;65.77;91067.47;2047910;70;20614;-81
2023/11/30 11:27:07;;;;;;;13.75;7.47;;;;;;;2.43;65.67;91081.59;2048081;70;20146;-80